sensor_id;sensor_type;location;lat;lon;timestamp;temperature;humidity
9598;DHT22;4837;50.890;4.724;2023-02-28T19:45:02;2.90;99.90
9598;DHT22;4837;50.890;4.724;2023-02-28T19:47:28;3.10;99.90
9598;DHT22;4837;50.890;4.724;2023-02-28T19:49:56;3.10;1.00
9598;DHT22;4837;50.890;4.724;2023-02-28T19:52:23;3.10;99.90
9598;DHT22;4837;50.890;4.724;2023-02-28T19:54:49;3.10;99.90
9598;DHT22;4837;50.890;4.724;2023-02-28T19:57:16;3.10;1.00
9598;DHT22;4837;50.890;4.724;2023-02-28T19:59:42;3.10;1.00
9598;DHT22;4837;50.890;4.724;2023-02-28T20:02:16;3.10;1.00
9598;DHT22;4837;50.890;4.724;2023-02-28T20:04:42;3.10;1.00
9598;DHT22;4837;50.890;4.724;2023-02-28T20:07:10;3.10;1.00
9598;DHT22;4837;50.890;4.724;2023-02-28T20:09:36;3.00;26.10
9598;DHT22;4837;50.890;4.724;2023-02-28T20:12:02;3.00;99.90
9598;DHT22;4837;50.890;4.724;2023-02-28T20:14:28;3.10;99.90
9598;DHT22;4837;50.890;4.724;2023-02-28T20:16:54;3.00;99.90
9598;DHT22;4837;50.890;4.724;2023-02-28T20:19:19;3.00;99.90
9598;DHT22;4837;50.890;4.724;2023-02-28T20:21:45;3.00;99.90
9598;DHT22;4837;50.890;4.724;2023-02-28T20:24:11;3.00;99.90
9598;DHT22;4837;50.890;4.724;2023-02-28T20:26:38;3.00;1.00
9598;DHT22;4837;50.890;4.724;2023-02-28T20:29:08;2.80;1.00
9598;DHT22;4837;50.890;4.724;2023-02-28T20:31:34;2.80;58.70
9598;DHT22;4837;50.890;4.724;2023-02-28T20:34:03;2.80;1.00
9598;DHT22;4837;50.890;4.724;2023-02-28T20:36:28;2.80;79.00
9598;DHT22;4837;50.890;4.724;2023-02-28T20:38:54;2.80;1.00
9598;DHT22;4837;50.890;4.724;2023-02-28T20:41:20;2.70;1.00
9598;DHT22;4837;50.890;4.724;2023-02-28T20:43:51;2.80;1.00
9598;DHT22;4837;50.890;4.724;2023-02-28T20:46:17;2.70;1.00
9598;DHT22;4837;50.890;4.724;2023-02-28T20:48:43;2.70;99.90
9598;DHT22;4837;50.890;4.724;2023-02-28T20:51:09;2.70;99.90
9598;DHT22;4837;50.890;4.724;2023-02-28T20:53:35;2.80;99.90
9598;DHT22;4837;50.890;4.724;2023-02-28T20:56:10;3.00;1.00
9598;DHT22;4837;50.890;4.724;2023-02-28T20:58:38;2.80;99.90
9598;DHT22;4837;50.890;4.724;2023-02-28T21:01:12;2.60;1.00
9598;DHT22;4837;50.890;4.724;2023-02-28T21:03:48;2.50;99.90
9598;DHT22;4837;50.890;4.724;2023-02-28T21:06:16;2.40;99.90
9598;DHT22;4837;50.890;4.724;2023-02-28T21:08:43;2.40;1.00
9598;DHT22;4837;50.890;4.724;2023-02-28T21:11:10;2.60;55.00
9598;DHT22;4837;50.890;4.724;2023-02-28T21:13:38;2.70;1.00
9598;DHT22;4837;50.890;4.724;2023-02-28T21:16:07;2.60;99.90
9598;DHT22;4837;50.890;4.724;2023-02-28T21:18:35;2.30;1.00
9598;DHT22;4837;50.890;4.724;2023-02-28T21:21:02;2.30;99.90
9598;DHT22;4837;50.890;4.724;2023-02-28T21:23:28;2.10;1.00
9598;DHT22;4837;50.890;4.724;2023-02-28T21:25:54;2.20;1.00
9598;DHT22;4837;50.890;4.724;2023-02-28T21:28:20;2.20;1.00
9598;DHT22;4837;50.890;4.724;2023-02-28T21:30:46;2.20;1.00
9598;DHT22;4837;50.890;4.724;2023-02-28T21:33:12;2.20;1.00
9598;DHT22;4837;50.890;4.724;2023-02-28T21:35:38;2.40;1.00
9598;DHT22;4837;50.890;4.724;2023-02-28T21:38:03;2.30;1.00
9598;DHT22;4837;50.890;4.724;2023-02-28T21:40:29;2.30;1.00
9598;DHT22;4837;50.890;4.724;2023-02-28T21:42:55;2.30;44.60
9598;DHT22;4837;50.890;4.724;2023-02-28T21:45:21;2.30;1.00
9598;DHT22;4837;50.890;4.724;2023-02-28T21:47:47;2.30;16.50
9598;DHT22;4837;50.890;4.724;2023-02-28T21:50:12;2.30;99.90
9598;DHT22;4837;50.890;4.724;2023-02-28T21:52:38;2.40;1.00
9598;DHT22;4837;50.890;4.724;2023-02-28T21:55:04;2.30;99.90
9598;DHT22;4837;50.890;4.724;2023-02-28T21:57:30;2.30;1.00
9598;DHT22;4837;50.890;4.724;2023-02-28T21:59:56;2.30;1.00
9598;DHT22;4837;50.890;4.724;2023-02-28T22:02:22;2.40;1.00
9598;DHT22;4837;50.890;4.724;2023-02-28T22:04:48;2.30;1.00
9598;DHT22;4837;50.890;4.724;2023-02-28T22:07:13;2.30;68.90
9598;DHT22;4837;50.890;4.724;2023-02-28T22:09:40;2.10;99.90
9598;DHT22;4837;50.890;4.724;2023-02-28T22:12:05;2.00;99.90
9598;DHT22;4837;50.890;4.724;2023-02-28T22:14:32;1.80;99.90
9598;DHT22;4837;50.890;4.724;2023-02-28T22:16:58;1.90;99.90
9598;DHT22;4837;50.890;4.724;2023-02-28T22:19:24;1.80;99.90
